Time;durP1;ratioP1;P1;durP2;ratioP2;P2;SDS_P1;SDS_P2;PMS_P1;PMS_P2;Temp;Humidity;BMP_temperature;BMP_pressure;BME280_temperature;BME280_humidity;BME280_pressure;Samples;Min_cycle;Max_cycle;Signal;HPM_P1;HPM_P2
2023/11/03 00:00:31;;;;;;;17.92;9.02;;;;;;;16.44;70.85;98903.19;5134161;27;20027;-29
2023/11/03 00:02:59;;;;;;;16.08;8.80;;;;;;;16.42;70.51;98906.13;5134359;27;20236;-27
2023/11/03 00:05:25;;;;;;;14.88;8.93;;;;;;;16.54;70.10;98903.22;5134246;27;20029;-26
2023/11/03 00:07:50;;;;;;;17.33;9.48;;;;;;;16.61;69.70;98887.69;5134237;27;20011;-26
2023/11/03 00:10:16;;;;;;;15.57;9.02;;;;;;;16.61;69.54;98863.50;5133709;27;20441;-27
2023/11/03 00:12:42;;;;;;;17.80;9.43;;;;;;;16.75;69.31;98872.69;5134406;27;20109;-26
2023/11/03 00:15:10;;;;;;;16.55;9.80;;;;;;;16.45;70.69;98876.09;5134525;27;20054;-26
2023/11/03 00:17:37;;;;;;;18.35;9.30;;;;;;;16.42;70.82;98880.09;5134004;27;20102;-26
2023/11/03 00:20:03;;;;;;;17.25;9.27;;;;;;;16.46;71.00;98884.94;5133944;27;20030;-26
2023/11/03 00:22:30;;;;;;;18.67;9.25;;;;;;;16.35;71.39;98884.88;5133750;27;20106;-27
2023/11/03 00:24:55;;;;;;;19.35;9.80;;;;;;;16.34;71.51;98875.22;5134193;27;20026;-28
2023/11/03 00:27:21;;;;;;;17.35;9.43;;;;;;;16.80;69.61;98877.25;5134171;27;20363;-28
2023/11/03 00:29:46;;;;;;;21.60;9.88;;;;;;;16.71;69.47;98874.28;5133663;27;20039;-28
2023/11/03 00:32:12;;;;;;;17.15;9.18;;;;;;;16.84;69.04;98877.56;5133644;27;20047;-25
2023/11/03 00:34:38;;;;;;;17.38;9.75;;;;;;;16.95;68.43;98882.69;5133467;27;20387;-25
2023/11/03 00:37:03;;;;;;;20.60;9.93;;;;;;;16.95;68.07;98871.94;5133525;27;20027;-28
2023/11/03 00:39:29;;;;;;;19.02;9.38;;;;;;;17.19;67.03;98882.19;5133446;27;20023;-27
2023/11/03 00:41:55;;;;;;;18.98;9.90;;;;;;;17.25;66.78;98883.00;5133542;27;20037;-27
2023/11/03 00:44:22;;;;;;;17.40;9.43;;;;;;;16.95;67.90;98885.38;5133489;27;20027;-27
2023/11/03 00:46:49;;;;;;;20.50;9.85;;;;;;;17.11;67.71;98875.44;5132987;27;20031;-27
2023/11/03 00:49:14;;;;;;;15.23;9.20;;;;;;;17.16;67.44;98864.72;5133416;27;20031;-27
2023/11/03 00:51:40;;;;;;;18.17;9.15;;;;;;;16.93;68.10;98867.91;5132934;27;20413;-28
2023/11/03 00:54:06;;;;;;;17.42;8.38;;;;;;;17.15;67.88;98863.13;5133180;27;20023;-27
2023/11/03 00:56:39;;;;;;;18.40;8.63;;;;;;;16.61;70.58;98848.19;5132989;27;20020;-26
2023/11/03 00:59:04;;;;;;;15.55;7.93;;;;;;;16.69;69.96;98876.41;5132930;27;20137;-26
2023/11/03 01:01:30;;;;;;;21.00;8.15;;;;;;;16.66;70.36;98884.19;5132801;27;20050;-26
2023/11/03 01:03:55;;;;;;;15.80;8.40;;;;;;;16.84;69.81;98874.88;5133063;27;20135;-26
2023/11/03 01:06:22;;;;;;;21.52;8.40;;;;;;;16.72;70.86;98865.16;5132706;27;20129;-26
2023/11/03 01:08:51;;;;;;;19.00;8.27;;;;;;;16.78;70.86;98852.53;5132755;27;20034;-26
2023/11/03 01:11:17;;;;;;;17.80;7.65;;;;;;;16.76;71.38;98833.19;5132476;27;20378;-26
2023/11/03 01:13:43;;;;;;;23.38;7.93;;;;;;;16.13;73.55;98820.66;5131171;27;20027;-26
2023/11/03 01:16:08;;;;;;;22.88;7.78;;;;;;;16.06;74.67;98812.03;5132535;27;20102;-26
2023/11/03 01:18:41;;;;;;;26.25;7.90;;;;;;;16.12;74.79;98828.97;5132503;27;20027;-26
2023/11/03 01:21:15;;;;;;;26.88;8.57;;;;;;;16.50;73.28;98848.44;5132441;27;20022;-27
2023/11/03 01:23:41;;;;;;;23.58;8.20;;;;;;;16.66;73.22;98865.38;5132638;27;20030;-26
2023/11/03 01:26:11;;;;;;;23.77;8.43;;;;;;;16.95;71.96;98882.69;5132494;27;20023;-26
2023/11/03 01:28:37;;;;;;;30.40;8.18;;;;;;;16.95;71.50;98901.50;5132701;27;20023;-26
2023/11/03 01:31:07;;;;;;;29.83;8.98;;;;;;;16.84;72.13;98920.56;5131683;27;20161;-26
2023/11/03 01:33:33;;;;;;;30.42;9.15;;;;;;;17.00;71.34;98906.06;5131939;27;20391;-27
2023/11/03 01:35:58;;;;;;;29.27;8.48;;;;;;;17.27;70.32;98915.78;5132203;27;20027;-27
2023/11/03 01:38:24;;;;;;;29.95;9.13;;;;;;;17.02;70.90;98905.81;5132148;27;20504;-27
2023/11/03 01:40:50;;;;;;;30.13;8.88;;;;;;;17.25;70.55;98896.44;5132310;27;20383;-26
2023/11/03 01:43:16;;;;;;;35.55;9.35;;;;;;;17.32;69.88;98887.03;5132110;27;20034;-26
2023/11/03 01:45:41;;;;;;;30.05;8.95;;;;;;;17.44;69.34;98873.34;5132068;27;20091;-26
2023/11/03 01:48:07;;;;;;;32.67;9.63;;;;;;;17.32;70.21;98870.09;5131981;27;20019;-26
2023/11/03 01:50:35;;;;;;;34.47;10.40;;;;;;;17.40;70.09;98861.47;5131885;27;20471;-26
2023/11/03 01:53:02;;;;;;;35.60;9.98;;;;;;;17.56;69.38;98860.41;5111268;27;20475;-26
2023/11/03 01:55:28;;;;;;;37.33;9.98;;;;;;;17.55;69.53;98850.72;5090793;28;20040;-25
2023/11/03 01:57:55;;;;;;;44.67;11.10;;;;;;;17.71;68.79;98874.91;5090842;28;20114;-26
2023/11/03 02:00:21;;;;;;;42.53;10.63;;;;;;;17.75;68.58;98878.69;5091185;28;20547;-26
2023/11/03 02:02:47;;;;;;;36.05;10.02;;;;;;;17.75;68.45;98882.16;5091231;28;20054;-27
2023/11/03 02:05:13;;;;;;;44.38;10.75;;;;;;;17.83;68.38;98896.16;5090685;28;20409;-28
2023/11/03 02:07:39;;;;;;;34.13;9.73;;;;;;;17.87;68.19;98894.56;5090723;28;20115;-27
2023/11/03 02:10:07;;;;;;;43.20;11.57;;;;;;;17.93;67.99;98896.97;5090675;28;20028;-26
2023/11/03 02:12:33;;;;;;;38.25;11.10;;;;;;;17.92;67.90;98898.06;5090629;28;20024;-26
2023/11/03 02:14:58;;;;;;;40.38;11.50;;;;;;;17.98;67.85;98901.53;5090743;28;20571;-26
2023/11/03 02:17:24;;;;;;;47.90;12.80;;;;;;;18.19;67.27;98894.22;5090526;28;20107;-26
2023/11/03 02:19:49;;;;;;;41.70;12.70;;;;;;;18.15;66.95;98898.53;5090746;28;20254;-26
2023/11/03 02:22:15;;;;;;;45.45;10.57;;;;;;;18.10;67.22;98901.22;5090510;28;20028;-26
2023/11/03 02:24:40;;;;;;;40.00;11.27;;;;;;;17.46;70.31;98906.13;5089975;28;20024;-26
2023/11/03 02:27:05;;;;;;;32.05;11.23;;;;;;;17.11;69.65;98901.53;5106275;28;20054;-26
2023/11/03 02:29:31;;;;;;;33.70;11.48;;;;;;;17.61;67.46;98894.56;5090559;28;20032;-27
2023/11/03 02:31:56;;;;;;;28.60;12.32;;;;;;;17.88;66.24;98898.88;5123377;28;20050;-27
2023/11/03 02:34:21;;;;;;;28.00;10.90;;;;;;;17.97;64.38;98895.34;5131045;28;20110;-26
2023/11/03 02:36:47;;;;;;;24.83;11.60;;;;;;;17.87;63.66;98884.59;5129787;28;20027;-26
2023/11/03 02:39:12;;;;;;;29.48;11.82;;;;;;;17.78;62.97;98872.72;5131519;28;20015;-27
2023/11/03 02:41:38;;;;;;;25.02;12.70;;;;;;;17.87;62.88;98870.34;5131298;27;20034;-27
2023/11/03 02:44:04;;;;;;;29.67;13.45;;;;;;;17.86;61.27;98860.63;5131290;27;20020;-27
2023/11/03 02:46:30;;;;;;;29.67;12.55;;;;;;;17.83;61.22;98869.25;5131900;27;20083;-26
2023/11/03 02:48:56;;;;;;;28.88;12.63;;;;;;;17.27;62.11;98870.91;5130472;28;20102;-26
2023/11/03 02:51:21;;;;;;;27.52;13.70;;;;;;;17.43;61.00;98860.16;5131534;27;20027;-26
2023/11/03 02:53:47;;;;;;;32.67;12.80;;;;;;;17.50;61.19;98874.94;5130992;28;20056;-26
2023/11/03 02:56:22;;;;;;;21.20;12.23;;;;;;;17.64;60.95;98871.69;5131228;27;20152;-27
2023/11/03 02:58:47;;;;;;;28.17;12.95;;;;;;;17.63;60.45;98867.38;5130927;27;20034;-26
2023/11/03 03:01:13;;;;;;;26.02;12.43;;;;;;;17.65;60.23;98873.28;5130974;28;20023;-26
2023/11/03 03:03:40;;;;;;;22.77;13.13;;;;;;;17.67;59.95;98873.81;5130912;27;20031;-26
2023/11/03 03:06:06;;;;;;;21.52;12.68;;;;;;;17.81;59.50;98866.81;5131035;27;20027;-25
2023/11/03 03:08:31;;;;;;;20.48;12.77;;;;;;;17.81;59.23;98858.75;5131153;28;20030;-26
2023/11/03 03:10:57;;;;;;;24.23;13.43;;;;;;;17.81;58.63;98853.38;5130879;28;20087;-26
2023/11/03 03:13:22;;;;;;;24.13;14.38;;;;;;;17.85;58.18;98851.78;5131031;28;20110;-27
2023/11/03 03:15:48;;;;;;;21.23;13.85;;;;;;;17.52;59.08;98851.25;5130897;28;20045;-27
2023/11/03 03:18:13;;;;;;;25.02;14.63;;;;;;;17.30;59.28;98842.66;5130559;27;20027;-27
2023/11/03 03:20:38;;;;;;;24.08;14.32;;;;;;;17.12;60.14;98852.09;5130668;28;20043;-27
2023/11/03 03:23:04;;;;;;;25.27;14.07;;;;;;;17.28;60.13;98840.25;5130463;28;20435;-27
2023/11/03 03:25:29;;;;;;;27.38;17.38;;;;;;;17.50;59.82;98849.94;5131020;28;20055;-27
2023/11/03 03:27:55;;;;;;;26.45;15.40;;;;;;;17.61;59.62;98842.63;5131030;28;20023;-27
2023/11/03 03:30:21;;;;;;;23.25;13.50;;;;;;;17.61;59.11;98823.81;5131134;27;20041;-26
2023/11/03 03:32:46;;;;;;;24.73;13.77;;;;;;;17.68;59.11;98833.22;5130626;27;20130;-28
2023/11/03 03:35:12;;;;;;;23.75;13.68;;;;;;;17.65;58.55;98838.31;5131067;27;20072;-27
2023/11/03 03:37:37;;;;;;;24.98;13.82;;;;;;;17.73;58.28;98837.78;5122250;27;20111;-27
2023/11/03 03:40:03;;;;;;;24.05;14.02;;;;;;;17.64;58.37;98837.53;5114578;28;20027;-26
2023/11/03 03:42:29;;;;;;;26.73;14.05;;;;;;;17.57;58.80;98820.84;5095840;28;20395;-27
2023/11/03 03:44:54;;;;;;;28.23;14.13;;;;;;;17.63;58.49;98825.16;5093346;28;20031;-28
2023/11/03 03:47:21;;;;;;;28.42;14.48;;;;;;;17.65;58.26;98824.88;5093449;28;20103;-27
2023/11/03 03:49:46;;;;;;;26.95;14.10;;;;;;;17.61;58.55;98832.69;5093293;28;20028;-27
2023/11/03 03:52:12;;;;;;;24.52;13.98;;;;;;;17.66;58.18;98824.59;5108678;28;20062;-27
2023/11/03 03:54:37;;;;;;;28.33;14.77;;;;;;;17.64;58.18;98815.19;5113279;28;20111;-27
2023/11/03 03:57:03;;;;;;;24.42;13.45;;;;;;;17.67;58.07;98806.56;5113008;28;20339;-27
2023/11/03 03:59:29;;;;;;;28.00;17.30;;;;;;;17.59;58.29;98816.81;5113120;27;20114;-27
2023/11/03 04:01:54;;;;;;;26.38;14.52;;;;;;;17.68;58.46;98816.25;5123228;27;20024;-27
2023/11/03 04:04:20;;;;;;;26.60;14.27;;;;;;;17.69;58.22;98809.81;5121574;27;20031;-27
2023/11/03 04:06:46;;;;;;;27.58;14.55;;;;;;;17.73;57.93;98810.88;5116549;27;20102;-27
2023/11/03 04:09:12;;;;;;;23.38;14.00;;;;;;;17.68;58.00;98797.44;5133698;27;20065;-27
2023/11/03 04:11:37;;;;;;;27.75;14.18;;;;;;;17.60;58.15;98796.09;5133661;27;20662;-26
2023/11/03 04:14:03;;;;;;;31.98;14.40;;;;;;;17.60;58.29;98798.78;5133735;27;20023;-26
2023/11/03 04:16:35;;;;;;;26.80;13.90;;;;;;;17.62;58.73;98809.28;5133383;27;20046;-26
2023/11/03 04:19:01;;;;;;;27.80;14.40;;;;;;;17.33;59.38;98807.97;5124453;27;20036;-26
2023/11/03 04:21:26;;;;;;;22.33;13.75;;;;;;;17.41;59.22;98811.22;5118775;27;20029;-26
2023/11/03 04:23:52;;;;;;;31.60;14.68;;;;;;;17.39;58.86;98806.91;5113696;27;20415;-26
2023/11/03 04:26:17;;;;;;;24.58;13.90;;;;;;;17.48;58.50;98807.16;5112315;28;20130;-26
2023/11/03 04:28:43;;;;;;;25.73;14.63;;;;;;;17.45;58.71;98802.31;5133001;27;20019;-26
2023/11/03 04:31:08;;;;;;;29.27;15.40;;;;;;;17.61;58.05;98794.22;5133383;27;20119;-26
2023/11/03 04:33:34;;;;;;;24.00;14.65;;;;;;;17.65;57.96;98793.41;5123528;27;20091;-27
2023/11/03 04:35:59;;;;;;;33.10;14.55;;;;;;;17.67;57.83;98793.94;5110904;27;20028;-26
2023/11/03 04:38:25;;;;;;;24.48;14.25;;;;;;;17.75;57.58;98798.75;5091880;28;20032;-26
2023/11/03 04:40:50;;;;;;;26.13;14.57;;;;;;;17.76;57.19;98786.09;5092101;28;20401;-26
2023/11/03 04:43:15;;;;;;;32.67;14.80;;;;;;;17.68;57.88;98794.75;5092283;28;20023;-26
2023/11/03 04:45:41;;;;;;;28.08;14.48;;;;;;;17.76;57.80;98799.56;5090769;28;20028;-26
2023/11/03 04:48:06;;;;;;;25.80;15.05;;;;;;;17.74;58.26;98793.66;5090350;28;20024;-26
2023/11/03 04:50:31;;;;;;;26.58;14.35;;;;;;;17.69;58.14;98794.47;5098158;27;20110;-26
2023/11/03 04:52:57;;;;;;;40.78;15.45;;;;;;;17.73;59.07;98806.31;5126430;27;20480;-27
2023/11/03 04:55:23;;;;;;;53.90;17.50;;;;;;;17.70;60.52;98819.50;5132189;27;20027;-26
2023/11/03 04:57:48;;;;;;;47.13;16.63;;;;;;;17.66;61.19;98813.84;5132159;27;20114;-26
2023/11/03 05:00:14;;;;;;;48.38;16.38;;;;;;;17.72;61.00;98817.31;5132376;27;20106;-27
2023/11/03 05:02:40;;;;;;;55.22;16.42;;;;;;;17.64;61.89;98823.28;5133345;27;20033;-26
2023/11/03 05:05:06;;;;;;;51.58;17.50;;;;;;;17.69;62.70;98824.06;5132996;27;20038;-26
2023/11/03 05:07:33;;;;;;;63.33;18.02;;;;;;;17.75;63.77;98819.47;5132941;27;20026;-26
2023/11/03 05:09:58;;;;;;;65.03;17.85;;;;;;;17.79;63.10;98823.22;5098111;27;20110;-28
2023/11/03 05:12:24;;;;;;;60.80;18.13;;;;;;;17.82;62.92;98817.31;5092487;28;20110;-26
2023/11/03 05:14:50;;;;;;;54.78;17.20;;;;;;;17.73;63.35;98832.41;5092455;28;20063;-27
2023/11/03 05:17:15;;;;;;;68.18;18.85;;;;;;;17.73;63.53;98821.66;5092522;28;20452;-27
2023/11/03 05:19:41;;;;;;;67.60;18.50;;;;;;;17.89;63.50;98822.44;5091963;28;20093;-28
2023/11/03 05:22:06;;;;;;;63.25;18.05;;;;;;;17.76;63.92;98824.59;5092309;28;20089;-28
2023/11/03 05:24:32;;;;;;;65.90;18.05;;;;;;;17.68;64.46;98810.88;5092461;28;20081;-27
2023/11/03 05:26:57;;;;;;;65.43;18.75;;;;;;;17.52;65.10;98815.50;5092670;28;20554;-27
2023/11/03 05:29:23;;;;;;;71.68;18.67;;;;;;;17.44;65.26;98819.53;5092622;28;20024;-27
2023/11/03 05:31:52;;;;;;;67.47;17.98;;;;;;;17.44;66.27;98824.94;5092274;28;20052;-28
2023/11/03 05:34:18;;;;;;;63.22;18.42;;;;;;;17.48;66.06;98828.69;5092368;28;20507;-27
2023/11/03 05:36:45;;;;;;;64.00;18.10;;;;;;;17.43;65.79;98830.56;5092191;28;20027;-28
2023/11/03 05:39:12;;;;;;;65.63;18.52;;;;;;;17.43;65.94;98815.22;5092064;28;20032;-27
2023/11/03 05:41:37;;;;;;;63.40;18.77;;;;;;;17.46;65.58;98805.81;5091686;28;20551;-27
2023/11/03 05:44:03;;;;;;;61.60;18.45;;;;;;;17.66;65.38;98805.78;5091166;28;20066;-27
2023/11/03 05:46:28;;;;;;;65.72;18.70;;;;;;;17.62;65.55;98814.66;5089393;28;20400;-28
2023/11/03 05:48:54;;;;;;;62.40;18.25;;;;;;;17.65;65.12;98814.09;5089624;28;20411;-27
2023/11/03 05:51:22;;;;;;;58.47;18.13;;;;;;;17.70;64.66;98820.28;5089851;28;20384;-27
2023/11/03 05:53:50;;;;;;;58.38;18.70;;;;;;;17.65;64.78;98835.63;5089725;28;20028;-27
2023/11/03 05:56:16;;;;;;;65.33;18.60;;;;;;;17.35;65.52;98821.97;5089970;28;20429;-28
2023/11/03 05:58:42;;;;;;;54.15;17.05;;;;;;;17.40;65.19;98821.13;5089620;28;20103;-28
2023/11/03 06:01:08;;;;;;;58.80;17.58;;;;;;;17.55;65.49;98823.00;5090411;28;20644;-28
2023/11/03 06:03:34;;;;;;;53.72;17.52;;;;;;;17.73;64.65;98829.72;5105608;28;20452;-27
2023/11/03 06:06:00;;;;;;;54.75;18.00;;;;;;;17.89;64.34;98831.31;5096204;28;20039;-26
2023/11/03 06:08:26;;;;;;;68.95;20.30;;;;;;;17.53;65.66;98815.19;5090800;28;20020;-27
2023/11/03 06:10:52;;;;;;;68.00;20.33;;;;;;;17.44;66.60;98813.34;5091686;28;20578;-27
2023/11/03 06:13:17;;;;;;;75.80;21.98;;;;;;;17.70;66.62;98804.13;5091095;28;20111;-27
2023/11/03 06:15:43;;;;;;;84.43;23.27;;;;;;;17.83;66.36;98810.03;5091656;28;20024;-27
2023/11/03 06:18:09;;;;;;;84.32;23.08;;;;;;;17.62;67.38;98809.28;5091072;28;20491;-27
2023/11/03 06:20:35;;;;;;;76.35;23.15;;;;;;;17.37;68.37;98795.59;5091521;28;20028;-27
2023/11/03 06:23:01;;;;;;;75.65;23.13;;;;;;;17.36;68.15;98788.63;5091013;28;20457;-27
2023/11/03 06:25:27;;;;;;;79.47;23.17;;;;;;;17.00;69.98;98793.19;5089673;28;20031;-27
2023/11/03 06:27:53;;;;;;;70.47;21.77;;;;;;;17.49;68.41;98792.63;5090625;28;20103;-27
2023/11/03 06:30:18;;;;;;;71.03;21.08;;;;;;;17.33;67.53;98777.59;5091087;28;20164;-27
2023/11/03 06:32:44;;;;;;;62.58;21.35;;;;;;;17.10;67.91;98781.66;5090870;28;20275;-27
2023/11/03 06:35:09;;;;;;;72.35;21.85;;;;;;;17.01;69.01;98797.50;5090989;28;20035;-27
2023/11/03 06:37:35;;;;;;;68.53;21.55;;;;;;;16.80;69.80;98784.03;5091055;28;20036;-27
2023/11/03 06:40:00;;;;;;;71.32;21.88;;;;;;;16.50;71.58;98779.41;5091492;28;20035;-28
2023/11/03 06:42:25;;;;;;;59.13;20.13;;;;;;;16.90;68.96;98772.50;5090905;28;20168;-27
2023/11/03 06:44:51;;;;;;;61.88;20.80;;;;;;;16.80;69.02;98754.47;5091161;28;20039;-27
2023/11/03 06:47:16;;;;;;;67.80;21.42;;;;;;;16.82;69.32;98754.25;5091148;28;20686;-27
2023/11/03 06:49:45;;;;;;;68.70;22.17;;;;;;;17.00;68.71;98763.63;5091178;28;20032;-28
2023/11/03 06:52:12;;;;;;;72.20;21.75;;;;;;;17.30;67.67;98764.69;5090851;28;20161;-27
2023/11/03 06:54:37;;;;;;;72.70;22.77;;;;;;;17.31;68.13;98769.81;5090691;28;20032;-26
2023/11/03 06:57:07;;;;;;;66.25;21.05;;;;;;;17.34;67.76;98777.34;5090783;28;20032;-27
2023/11/03 06:59:35;;;;;;;79.38;23.00;;;;;;;17.18;68.42;98776.53;5090600;28;20027;-27
2023/11/03 07:02:01;;;;;;;74.63;22.52;;;;;;;16.84;69.94;98788.91;5090916;28;20059;-28
2023/11/03 07:04:26;;;;;;;74.35;22.55;;;;;;;16.80;69.81;98792.09;5091115;28;20411;-29
2023/11/03 07:06:52;;;;;;;69.43;21.98;;;;;;;17.02;68.97;98785.69;5090916;28;20024;-27
2023/11/03 07:09:18;;;;;;;73.00;22.05;;;;;;;16.99;68.10;98783.53;5090813;28;20034;-28
2023/11/03 07:11:44;;;;;;;74.43;21.88;;;;;;;17.11;68.61;98778.69;5092457;28;20061;-27
2023/11/03 07:14:09;;;;;;;88.28;24.13;;;;;;;17.10;69.06;98782.47;5094605;28;20132;-28
2023/11/03 07:16:39;;;;;;;85.60;24.23;;;;;;;17.12;68.80;98783.00;5094609;28;20468;-26
2023/11/03 07:19:06;;;;;;;75.72;23.60;;;;;;;17.22;68.31;98786.75;5094521;28;20028;-27
2023/11/03 07:21:31;;;;;;;77.90;22.80;;;;;;;17.41;67.75;98770.88;5094296;28;20552;-27
2023/11/03 07:23:57;;;;;;;84.70;23.02;;;;;;;17.28;68.18;98766.84;5094381;28;20020;-28
2023/11/03 07:26:23;;;;;;;78.63;23.83;;;;;;;17.36;67.90;98768.97;5094141;28;20056;-28
2023/11/03 07:28:49;;;;;;;71.55;21.80;;;;;;;17.07;69.12;98766.88;5094049;28;20491;-28
2023/11/03 07:31:16;;;;;;;65.15;22.35;;;;;;;17.21;68.58;98769.84;5094210;28;20044;-27
2023/11/03 07:33:42;;;;;;;62.15;20.20;;;;;;;16.91;69.45;98755.31;5093924;28;20020;-27
2023/11/03 07:36:10;;;;;;;61.58;20.73;;;;;;;16.99;69.25;98767.41;5094035;28;20027;-28
2023/11/03 07:38:36;;;;;;;62.07;20.93;;;;;;;16.63;70.84;98764.66;5093624;28;20107;-28
2023/11/03 07:41:02;;;;;;;59.88;20.85;;;;;;;16.17;72.20;98765.38;5093760;28;20100;-27
2023/11/03 07:43:29;;;;;;;57.58;20.48;;;;;;;16.33;72.10;98752.00;5093529;28;20223;-27
2023/11/03 07:45:55;;;;;;;54.05;19.90;;;;;;;16.63;70.32;98745.88;5094003;28;20050;-28
2023/11/03 07:48:22;;;;;;;68.68;21.15;;;;;;;16.97;69.57;98734.63;5093752;28;20020;-27
2023/11/03 07:50:48;;;;;;;62.28;20.90;;;;;;;17.17;68.23;98729.25;5093566;28;20023;-27
2023/11/03 07:53:13;;;;;;;60.53;20.67;;;;;;;16.54;70.86;98724.09;5093793;28;20016;-28
2023/11/03 07:55:38;;;;;;;57.00;21.30;;;;;;;16.71;70.98;98720.34;5093869;28;20507;-28
2023/11/03 07:58:05;;;;;;;55.97;20.13;;;;;;;16.88;70.15;98712.06;5093572;28;20024;-27
2023/11/03 08:00:31;;;;;;;57.70;19.65;;;;;;;16.38;71.20;98707.19;5093795;28;20031;-27
2023/11/03 08:02:59;;;;;;;52.05;19.98;;;;;;;16.43;71.72;98701.03;5093959;28;20024;-28
2023/11/03 08:05:24;;;;;;;47.00;19.08;;;;;;;16.45;71.91;98712.28;5093762;28;20032;-28
2023/11/03 08:07:50;;;;;;;60.45;19.75;;;;;;;16.92;70.49;98710.44;5093576;28;20127;-28
2023/11/03 08:10:16;;;;;;;63.70;20.10;;;;;;;17.28;69.08;98713.09;5093889;28;20020;-28
2023/11/03 08:12:42;;;;;;;55.67;18.88;;;;;;;17.33;68.96;98710.38;5093512;28;20496;-28
2023/11/03 08:15:08;;;;;;;55.28;18.77;;;;;;;17.32;69.12;98714.13;5093429;28;20031;-26
2023/11/03 08:17:35;;;;;;;46.78;17.50;;;;;;;17.45;68.08;98716.25;5092926;28;20476;-27
2023/11/03 08:20:01;;;;;;;44.00;17.75;;;;;;;16.88;70.41;98718.22;5093132;28;20476;-28
2023/11/03 08:22:29;;;;;;;49.42;17.90;;;;;;;17.03;70.24;98711.25;5092892;28;20092;-27
2023/11/03 08:24:56;;;;;;;49.65;18.38;;;;;;;17.12;69.92;98731.13;5093108;28;20396;-27
2023/11/03 08:27:21;;;;;;;45.97;17.50;;;;;;;17.15;69.48;98735.94;5093352;28;20016;-27
2023/11/03 08:29:47;;;;;;;45.38;16.52;;;;;;;16.98;70.17;98737.06;5092997;28;20103;-28
2023/11/03 08:32:13;;;;;;;40.63;16.77;;;;;;;16.53;71.90;98740.50;5093054;28;20119;-28
2023/11/03 08:34:40;;;;;;;43.15;16.92;;;;;;;16.49;72.16;98742.13;5093222;28;20044;-28
2023/11/03 08:37:05;;;;;;;41.33;17.88;;;;;;;16.91;71.30;98723.06;5092970;28;20156;-28
2023/11/03 08:39:31;;;;;;;39.92;17.10;;;;;;;16.77;71.57;98714.72;5093198;28;20065;-28
2023/11/03 08:42:01;;;;;;;42.10;17.88;;;;;;;17.25;70.40;98719.00;5093313;28;20078;-27
2023/11/03 08:44:26;;;;;;;;;;;;;;;16.96;71.79;98716.88;5093722;28;20024;-27
2023/11/03 08:46:52;;;;;;;41.33;17.65;;;;;;;16.76;72.65;98715.78;5093256;28;19908;-28
2023/11/03 08:49:17;;;;;;;45.95;17.33;;;;;;;16.79;72.59;98715.25;5092877;28;20444;-28
2023/11/03 08:51:43;;;;;;;43.22;17.85;;;;;;;17.15;71.46;98712.59;5093082;28;20031;-28
2023/11/03 08:54:10;;;;;;;45.67;17.90;;;;;;;16.81;72.83;98685.41;5092908;28;20024;-27
2023/11/03 08:56:36;;;;;;;46.33;18.80;;;;;;;17.13;71.82;98678.97;5093210;28;20043;-29
2023/11/03 08:59:03;;;;;;;44.38;19.73;;;;;;;17.13;72.15;98669.00;5092511;28;20411;-28
2023/11/03 09:01:29;;;;;;;46.67;19.48;;;;;;;17.04;72.49;98665.28;5092835;28;20328;-28
2023/11/03 09:03:54;;;;;;;47.85;19.90;;;;;;;16.77;72.84;98670.91;5092817;28;20416;-27
2023/11/03 09:06:20;;;;;;;43.40;19.30;;;;;;;16.69;73.98;98668.78;5092779;28;20023;-27
2023/11/03 09:08:46;;;;;;;52.38;19.95;;;;;;;17.33;71.63;98675.44;5092729;28;20499;-28
2023/11/03 09:11:12;;;;;;;43.20;19.80;;;;;;;17.14;71.79;98680.59;5092129;28;20359;-27
2023/11/03 09:13:51;;;;;;;47.22;19.88;;;;;;;17.00;72.30;98665.03;5092185;28;20095;-28
2023/11/03 09:16:16;;;;;;;48.08;20.13;;;;;;;16.38;75.22;98652.69;5092081;28;20020;-28
2023/11/03 09:18:42;;;;;;;46.78;20.83;;;;;;;16.65;75.24;98656.97;5092126;28;20553;-28
2023/11/03 09:21:08;;;;;;;46.33;20.80;;;;;;;17.57;71.16;98662.97;5092406;28;20022;-27
2023/11/03 09:23:33;;;;;;;49.20;21.25;;;;;;;17.78;69.70;98661.00;5092026;28;20050;-28
2023/11/03 09:26:00;;;;;;;43.20;20.63;;;;;;;17.86;69.17;98651.56;5092067;28;20024;-27
2023/11/03 09:28:26;;;;;;;48.00;21.38;;;;;;;18.05;68.38;98650.91;5092166;28;20472;-28
2023/11/03 09:30:52;;;;;;;50.05;21.15;;;;;;;18.09;68.62;98649.28;5092071;28;20051;-28
2023/11/03 09:33:17;;;;;;;45.05;20.33;;;;;;;18.16;68.06;98649.75;5091695;28;20064;-27
2023/11/03 09:35:43;;;;;;;56.30;23.52;;;;;;;18.36;67.33;98638.84;5091349;28;20016;-28
2023/11/03 09:38:08;;;;;;;54.88;23.45;;;;;;;17.88;69.03;98629.75;5092086;28;20023;-28
2023/11/03 09:40:35;;;;;;;54.50;22.92;;;;;;;18.26;67.16;98633.53;5092221;28;20020;-26
2023/11/03 09:43:03;;;;;;;49.08;22.27;;;;;;;18.13;68.28;98632.28;5092026;28;20052;-27
2023/11/03 09:45:30;;;;;;;50.58;22.20;;;;;;;17.87;68.84;98620.06;5092027;28;20039;-30
2023/11/03 09:47:59;;;;;;;53.10;23.38;;;;;;;17.90;69.13;98614.94;5091944;28;20103;-27
2023/11/03 09:50:25;;;;;;;54.28;23.58;;;;;;;17.98;68.95;98603.56;5091819;28;20059;-30
2023/11/03 09:52:54;;;;;;;47.53;21.10;;;;;;;18.14;68.55;98601.59;5091753;28;20115;-27
2023/11/03 09:55:23;;;;;;;;;;;;;;;18.20;67.86;98599.66;5092528;28;20067;-27
2023/11/03 09:57:54;;;;;;;45.25;20.17;;;;;;;18.09;68.56;98590.06;5091602;28;19999;-29
2023/11/03 10:00:21;;;;;;;43.67;20.15;;;;;;;18.41;67.43;98594.91;5091720;28;20034;-27
2023/11/03 10:02:50;;;;;;;42.63;20.05;;;;;;;18.49;67.06;98601.56;5091690;28;20032;-28
2023/11/03 10:05:16;;;;;;;41.28;18.48;;;;;;;18.34;67.17;98603.31;5091686;28;20471;-28
2023/11/03 10:08:05;;;;;;;38.08;17.38;;;;;;;17.86;69.24;98595.06;5091556;28;20488;-28
2023/11/03 10:10:35;;;;;;;37.05;17.73;;;;;;;17.82;69.71;98593.16;5091502;28;20024;-27
2023/11/03 10:13:04;;;;;;;32.78;15.73;;;;;;;18.47;67.50;98592.97;5091410;28;20119;-27
2023/11/03 10:15:29;;;;;;;28.50;14.63;;;;;;;18.36;66.74;98593.06;5091415;28;20058;-27
2023/11/03 10:17:56;;;;;;;27.90;14.63;;;;;;;18.66;66.52;98588.47;5091691;28;20290;-28
2023/11/03 10:20:24;;;;;;;28.30;13.90;;;;;;;19.10;64.84;98587.50;5091511;28;20111;-28
2023/11/03 10:22:53;;;;;;;28.95;13.75;;;;;;;19.38;63.97;98565.31;5091477;28;20102;-27
2023/11/03 10:25:19;;;;;;;25.55;13.13;;;;;;;19.60;62.74;98580.94;5091149;28;20042;-28
2023/11/03 10:27:54;;;;;;;33.88;14.25;;;;;;;19.35;63.54;98574.78;5091211;28;20016;-28
2023/11/03 10:30:20;;;;;;;27.10;12.73;;;;;;;19.21;64.53;98560.41;5091366;28;20050;-27
2023/11/03 10:32:46;;;;;;;26.42;12.57;;;;;;;19.76;62.64;98546.47;5091072;28;20471;-27
2023/11/03 10:35:13;;;;;;;30.98;12.90;;;;;;;20.03;61.93;98556.56;5091261;28;20107;-26
2023/11/03 10:37:40;;;;;;;27.60;13.02;;;;;;;20.11;60.92;98548.63;5091170;28;20024;-27
2023/11/03 10:40:12;;;;;;;25.45;13.20;;;;;;;20.03;60.72;98554.69;5090744;28;20024;-28
2023/11/03 10:42:48;;;;;;;24.10;13.20;;;;;;;20.09;61.04;98545.41;5090148;28;20047;-28
2023/11/03 10:45:19;;;;;;;24.38;12.35;;;;;;;20.13;60.43;98525.94;5092201;28;20027;-27
2023/11/03 10:48:11;;;;;;;27.25;13.48;;;;;;;19.87;61.23;98526.31;5095461;28;20114;-30
2023/11/03 10:50:54;;;;;;;28.10;13.70;;;;;;;19.87;61.61;98529.81;5095301;28;20152;-26
2023/11/03 10:53:19;;;;;;;24.48;13.10;;;;;;;19.64;62.18;98528.78;5095134;28;20407;-27
2023/11/03 10:56:05;;;;;;;28.55;13.95;;;;;;;19.95;61.40;98532.94;5095190;28;20548;-27
2023/11/03 10:58:32;;;;;;;35.65;13.75;;;;;;;20.26;60.14;98531.34;5094923;28;20028;-27
2023/11/03 11:01:07;;;;;;;27.52;13.48;;;;;;;20.06;60.67;98534.38;5094934;28;20020;-27
2023/11/03 11:03:43;;;;;;;27.42;13.63;;;;;;;20.43;60.39;98525.38;5095320;28;20028;-27
2023/11/03 11:06:13;;;;;;;27.58;14.15;;;;;;;20.44;59.81;98526.97;5094939;28;20020;-26
2023/11/03 11:08:41;;;;;;;25.40;13.30;;;;;;;20.62;59.33;98532.63;5094921;28;20020;-27
2023/11/03 11:11:10;;;;;;;28.27;13.52;;;;;;;20.63;59.24;98521.53;5094888;28;20426;-27
2023/11/03 11:13:38;;;;;;;32.45;13.88;;;;;;;20.24;60.34;98520.03;5094841;28;20028;-27
2023/11/03 11:16:05;;;;;;;29.40;13.63;;;;;;;20.84;58.71;98521.13;5094865;28;20380;-28